Aeroporto :
LOGIN :

Iscrizione | Disclaimer

   EN    FR    IT 

 










Sommario :    VFR   VFR Marginale   IFR   IFR Intensivo   IFR Molto Intensivo
Visibilità : 
Base nubi : 
>= 8 km
>= 3000ft
5 / 8 km
1000 / 3000 ft
1500m / 5 km
500 / 1000 ft
800 / 1500m
200 / 500 ft
< 800m
< 200 ft
Simboli :   Temporali  Nebbia  Neve Forte  Precipitazioni Forti  Vento > 20 kt
SIGMETs :   Varie  Temporali  Ghiacco  Turbolenza  Onda orograficha  Ceneri Vulcaniche






- Altitudine del aeroporto : 87 ft
- Codice IATA : FSC


LFKF - Figari

ULTIMO METAR :
  • 180600Z AUTO 05005KT 9999 FEW022/// BKN028/// OVC039/// ///CB 09/08 Q1010 TEMPO SHRA

METARs OBSOLETI :
  • 180530Z AUTO 01003KT 300V080 9999 -RA BKN032/// OVC039/// ///CB 09/08 Q1010 TEMPO SHRA
  • 180500Z AUTO 34003KT 9999 BKN037/// BKN044/// BKN050/// ///CB 09/08 Q1010 TEMPO SHRA
  • 180430Z AUTO 16005KT 130V190 9999 -RA FEW037/// SCT043/// BKN049/// ///TCU 09/08 Q1010 TEMPO SHRA
  • 180400Z AUTO VRB03KT 9999 FEW050/// OVC064/// ///CB 07/07 Q1010 TEMPO SHRA
  • 180330Z AUTO VRB03KT 9999 FEW058/// BKN070/// BKN086/// ///CB 07/06 Q1010 TEMPO SHRA

TAF TAF LFKF
Valido dal 18 a 03 ore il 19 a 03 ore UTC


180200Z 1803/1903 06005KT 9999 FEW033TCU
TEMPO 1803/1903 SHRA SCT023TCU BKN035
BECMG 1812/1815 06010KT



MetMap, La meteo Aeronautica in un colpo d'occhio ! - Copyright ORBIFLY Dicembre 2007 - Disclaimer

ORBIFLY MET'MAP TEAM :

Programmazione e sviluppo : Alexandra Zaïnal
Concezione e sviluppo : Baudouin d'Aumeries
Co-Programmazione e sviluppo : Marc-Olivier Méhu
Supporto tecnico e logistico : Manuel Goepfert
Aiuto per la traduzione : Arnaldo La Scala

Contatto : metmap@orbifly.com




FONTI E CREDITI :

   NOAA